Elm Grove, Wisconsin
Current Conditions -  °F | °C
As of 5:15 AM on Saturday 25 Oct 2014 (Local Time) from KMWC Reporting Station
Haze Haze  
Wind Chill: 54°   Ceiling: Unl
Heat Index: 54°   Visibility: 5mi
Dew Point: 52°   Wind: 9mph
Humidity: 94%   Direction: 270°W
Pressure: 29.86"   Gusts: NA
Location:  43.05°N, 88.08°W
Report Text: KMWC 251015Z AUTO 27008KT 5SM BR SCT007 SCT012 12/11 A2986 RMK AO2
Loading
Personal Weather Stations






























Interactive Weather Map New forecast layout! Learn more

10-Day Weather Forecast

Advertisements
Track Severe Weather on mobile